createdAt,value
2022-11-16T00:04:19.964Z,48.05
2022-11-16T00:06:50.037Z,44.85
2022-11-16T00:09:23.371Z,51.28
2022-11-16T00:11:51.999Z,48.95
2022-11-16T00:14:21.814Z,52.00
2022-11-16T00:16:49.561Z,46.90
2022-11-16T00:21:45.042Z,46.78
2022-11-16T00:24:13.480Z,47.47
2022-11-16T00:26:41.360Z,50.13
2022-11-16T00:29:13.424Z,50.42
2022-11-16T00:31:42.563Z,54.30
2022-11-16T00:34:10.391Z,52.65
2022-11-16T00:36:38.086Z,51.83
2022-11-16T00:41:33.416Z,53.22
2022-11-16T00:46:28.623Z,49.15
2022-11-16T00:51:25.238Z,52.15
2022-11-16T00:53:52.969Z,53.85
2022-11-16T00:56:21.780Z,49.10
2022-11-16T01:01:17.626Z,49.28
2022-11-16T01:03:46.027Z,51.85
2022-11-16T01:06:15.223Z,51.15
2022-11-16T01:08:44.610Z,49.03
2022-11-16T01:11:32.119Z,52.00
2022-11-16T01:13:59.786Z,50.38
2022-11-16T01:18:55.485Z,50.80
2022-11-16T01:21:24.171Z,51.42
2022-11-16T01:23:54.014Z,50.40
2022-11-16T01:26:21.816Z,51.63
2022-11-16T01:28:49.910Z,47.97
2022-11-16T01:31:17.923Z,52.13
2022-11-16T01:33:45.694Z,50.75
2022-11-16T01:36:20.271Z,49.45
2022-11-16T01:38:48.349Z,52.15
2022-11-16T01:41:21.254Z,50.17
2022-11-16T01:43:55.296Z,48.42
2022-11-16T01:46:26.014Z,45.80
2022-11-16T01:48:55.798Z,47.55
2022-11-16T01:51:23.659Z,47.80
2022-11-16T01:53:51.788Z,49.25
2022-11-16T01:56:20.982Z,46.05
2022-11-16T01:59:00.961Z,43.92
2022-11-16T02:01:29.026Z,44.80
2022-11-16T02:04:00.773Z,46.25
2022-11-16T02:06:35.073Z,45.50
2022-11-16T02:09:38.427Z,45.42
2022-11-16T02:12:18.122Z,47.40
2022-11-16T02:14:53.649Z,40.72
2022-11-16T02:17:30.041Z,45.95
2022-11-16T02:20:10.276Z,44.85
2022-11-16T02:22:45.771Z,41.25
2022-11-16T02:25:17.795Z,48.47
2022-11-16T02:28:03.527Z,45.38
2022-11-16T02:30:32.669Z,45.42
2022-11-16T02:33:02.653Z,46.08
2022-11-16T02:35:33.489Z,45.70
2022-11-16T02:38:08.173Z,44.47
2022-11-16T02:40:37.225Z,42.15
2022-11-16T02:43:07.124Z,42.78
2022-11-16T02:45:38.360Z,44.95
2022-11-16T02:48:08.009Z,46.08
2022-11-16T02:50:36.491Z,44.80
2022-11-16T02:53:04.729Z,42.78
2022-11-16T02:55:35.468Z,43.33
2022-11-16T02:58:04.011Z,43.70
2022-11-16T03:00:37.082Z,42.92
2022-11-16T03:03:12.358Z,41.30
2022-11-16T03:05:41.503Z,42.20
2022-11-16T03:08:14.256Z,41.53
2022-11-16T03:11:00.308Z,43.35
2022-11-16T03:13:29.182Z,44.05
2022-11-16T03:15:57.577Z,43.47
2022-11-16T03:18:29.023Z,42.75
2022-11-16T03:21:05.340Z,42.80
2022-11-16T03:23:34.440Z,40.15
2022-11-16T03:26:05.292Z,38.65
2022-11-16T03:28:35.489Z,38.50
2022-11-16T03:31:07.054Z,39.85
2022-11-16T03:33:39.011Z,38.10
2022-11-16T03:36:10.007Z,39.92
2022-11-16T03:38:38.947Z,41.50
2022-11-16T03:41:08.256Z,38.33
2022-11-16T03:43:37.150Z,37.55
2022-11-16T03:46:05.777Z,37.47
2022-11-16T03:48:35.783Z,35.55
2022-11-16T03:51:10.030Z,37.15
2022-11-16T03:53:39.663Z,36.40
2022-11-16T03:56:09.181Z,34.25
2022-11-16T03:58:36.934Z,36.60
2022-11-16T04:01:04.744Z,34.42
2022-11-16T04:03:33.005Z,35.63
2022-11-16T04:06:19.529Z,34.08
2022-11-16T04:09:05.946Z,34.42
2022-11-16T04:11:54.405Z,35.40
2022-11-16T04:14:41.467Z,35.55
2022-11-16T04:17:30.993Z,34.30
2022-11-16T04:20:24.564Z,34.78
2022-11-16T04:23:14.527Z,32.90
2022-11-16T04:25:44.766Z,34.20
2022-11-16T04:28:16.720Z,34.95
2022-11-16T04:31:08.140Z,34.05
2022-11-16T04:33:55.839Z,35.22
2022-11-16T04:36:41.596Z,36.95
2022-11-16T04:39:10.098Z,37.03
2022-11-16T04:41:56.876Z,38.90
2022-11-16T04:44:29.776Z,39.13
2022-11-16T04:47:08.995Z,37.85
2022-11-16T04:49:39.259Z,39.17
2022-11-16T04:52:08.958Z,41.65
2022-11-16T04:54:36.792Z,38.22
2022-11-16T04:59:33.434Z,39.72
2022-11-16T05:02:10.359Z,40.45
2022-11-16T05:04:58.475Z,43.33
2022-11-16T05:07:27.486Z,41.45
2022-11-16T05:10:03.848Z,40.42
2022-11-16T05:12:31.993Z,41.90
2022-11-16T05:15:04.221Z,42.67
2022-11-16T05:17:33.844Z,43.70
2022-11-16T05:20:19.921Z,41.15
2022-11-16T05:22:54.967Z,90.07
2022-11-16T05:25:24.279Z,87.90
2022-11-16T05:27:52.528Z,52.35
2022-11-16T05:32:49.208Z,44.72
2022-11-16T05:35:19.617Z,42.55
2022-11-16T05:37:48.015Z,45.00
2022-11-16T05:40:16.221Z,43.03
2022-11-16T05:42:50.861Z,47.15
2022-11-16T05:45:21.284Z,46.60
2022-11-16T05:47:51.508Z,57.05
2022-11-16T05:50:19.639Z,56.03
2022-11-16T05:53:00.769Z,47.33
2022-11-16T05:55:28.859Z,45.63
2022-11-16T05:57:57.235Z,48.28
2022-11-16T06:00:25.054Z,47.67
2022-11-16T06:02:55.972Z,47.30
2022-11-16T06:05:28.822Z,46.17
2022-11-16T06:07:58.591Z,47.45
2022-11-16T06:10:26.443Z,45.70
2022-11-16T06:12:55.126Z,45.92
2022-11-16T06:15:24.161Z,47.40
2022-11-16T06:17:53.519Z,49.80
2022-11-16T06:20:23.252Z,47.85
2022-11-16T06:22:53.748Z,48.88
2022-11-16T06:25:22.961Z,52.05
2022-11-16T06:30:19.198Z,46.60
2022-11-16T06:32:46.979Z,51.28
2022-11-16T06:35:15.699Z,51.50
2022-11-16T06:37:45.381Z,48.08
2022-11-16T06:40:13.636Z,47.63
2022-11-16T06:42:44.598Z,47.80
2022-11-16T06:45:14.645Z,46.05
2022-11-16T06:47:47.708Z,48.90
2022-11-16T06:50:19.183Z,54.30
2022-11-16T06:52:49.693Z,48.95
2022-11-16T06:55:18.717Z,48.20
2022-11-16T06:57:47.985Z,55.17
2022-11-16T07:00:17.349Z,87.80
2022-11-16T07:02:46.042Z,59.17
2022-11-16T07:05:17.165Z,50.05
2022-11-16T07:07:46.340Z,49.75
2022-11-16T07:10:15.763Z,46.83
2022-11-16T07:12:44.434Z,51.13
2022-11-16T07:15:12.765Z,54.70
2022-11-16T07:17:42.616Z,49.50
2022-11-16T07:20:12.104Z,48.53
2022-11-16T07:22:40.724Z,48.35
2022-11-16T07:25:12.797Z,49.95
2022-11-16T07:30:10.468Z,50.42
2022-11-16T07:32:47.364Z,51.95
2022-11-16T07:35:35.729Z,52.00
2022-11-16T07:38:03.514Z,47.75
2022-11-16T07:40:31.396Z,47.40
2022-11-16T07:46:28.277Z,51.75
2022-11-16T07:48:51.268Z,49.42
2022-11-16T07:54:04.255Z,49.25
2022-11-16T07:56:32.160Z,47.50
2022-11-16T07:59:03.846Z,53.28
2022-11-16T08:01:37.493Z,58.17
2022-11-16T08:04:05.365Z,91.68
2022-11-16T08:06:33.335Z,55.17
2022-11-16T08:09:01.087Z,50.38
2022-11-16T08:11:30.094Z,52.22
2022-11-16T08:13:58.183Z,49.70
2022-11-16T08:16:26.088Z,50.55
2022-11-16T08:19:02.381Z,52.20
2022-11-16T08:21:30.539Z,50.97
2022-11-16T08:23:59.092Z,50.75
2022-11-16T08:26:27.791Z,52.28
2022-11-16T08:29:01.808Z,50.60
2022-11-16T08:31:34.217Z,48.90
2022-11-16T08:34:23.613Z,50.72
2022-11-16T08:36:57.711Z,54.72
2022-11-16T08:39:32.866Z,49.60
2022-11-16T08:44:28.057Z,46.95
2022-11-16T08:46:58.483Z,50.15
2022-11-16T08:49:50.417Z,49.38
2022-11-16T08:52:20.175Z,48.78
2022-11-16T08:54:50.044Z,49.83
2022-11-16T08:57:18.459Z,53.13
2022-11-16T08:59:49.447Z,66.82
2022-11-16T09:07:15.196Z,68.43
2022-11-16T09:09:43.104Z,52.22
2022-11-16T09:12:10.837Z,50.95
2022-11-16T09:17:22.988Z,49.33
2022-11-16T09:19:51.065Z,52.50
2022-11-16T09:24:47.685Z,48.65
2022-11-16T09:27:16.530Z,52.00
2022-11-16T09:29:47.284Z,52.55
2022-11-16T09:34:42.574Z,50.17
2022-11-16T09:39:37.993Z,51.55
2022-11-16T09:42:18.579Z,51.05
2022-11-16T09:44:53.617Z,54.67
2022-11-16T09:47:22.105Z,51.45
2022-11-16T09:49:52.412Z,51.67
2022-11-16T09:52:25.172Z,46.97
2022-11-16T09:54:54.200Z,47.05
2022-11-16T09:57:26.393Z,48.08
2022-11-16T09:59:57.593Z,47.28
2022-11-16T10:02:27.438Z,49.33
2022-11-16T10:04:58.839Z,48.33
2022-11-16T10:07:28.996Z,47.75
2022-11-16T10:09:57.089Z,51.10
2022-11-16T10:12:29.012Z,50.40
2022-11-16T10:15:04.810Z,90.05
2022-11-16T10:17:39.229Z,80.25
2022-11-16T10:20:17.165Z,50.50
2022-11-16T10:22:48.023Z,48.30
2022-11-16T10:25:16.682Z,49.33
2022-11-16T10:27:52.780Z,45.95
2022-11-16T10:30:21.294Z,46.38
2022-11-16T10:32:50.500Z,44.78
2022-11-16T10:35:20.252Z,45.85
2022-11-16T10:37:49.882Z,44.22
2022-11-16T10:40:20.437Z,46.83
2022-11-16T10:42:52.052Z,45.40
2022-11-16T10:45:22.834Z,44.53
2022-11-16T10:47:53.533Z,46.42
2022-11-16T10:50:32.509Z,45.63
2022-11-16T10:53:00.669Z,45.05
2022-11-16T10:55:29.430Z,47.58
2022-11-16T10:57:59.295Z,45.28
2022-11-16T11:00:37.476Z,43.47
2022-11-16T11:03:05.594Z,45.80
2022-11-16T11:05:34.241Z,45.25
2022-11-16T11:08:02.898Z,43.25
2022-11-16T11:10:35.354Z,51.22
2022-11-16T11:13:07.693Z,53.00
2022-11-16T11:15:35.544Z,44.15
2022-11-16T11:18:20.276Z,47.50
2022-11-16T11:20:49.132Z,41.72
2022-11-16T11:23:18.817Z,43.20
2022-11-16T11:26:04.166Z,42.22
2022-11-16T11:28:34.944Z,44.97
2022-11-16T11:31:03.724Z,46.55
2022-11-16T11:33:33.270Z,46.05
2022-11-16T11:36:03.196Z,42.22
2022-11-16T11:38:31.082Z,42.72
2022-11-16T11:40:59.838Z,45.47
2022-11-16T11:43:28.404Z,41.47
2022-11-16T11:46:00.125Z,61.88
2022-11-16T11:48:37.463Z,49.30
2022-11-16T11:51:10.511Z,43.08
2022-11-16T11:53:41.010Z,41.58
2022-11-16T11:56:09.575Z,44.42
2022-11-16T11:58:39.778Z,41.03
2022-11-16T12:01:25.061Z,39.90
2022-11-16T12:04:11.155Z,44.92
2022-11-16T12:06:43.887Z,42.25
2022-11-16T12:09:19.180Z,45.03
2022-11-16T12:11:53.091Z,43.45
2022-11-16T12:14:30.307Z,41.25
2022-11-16T12:17:03.942Z,41.90
2022-11-16T12:19:49.378Z,41.50
2022-11-16T12:22:23.095Z,39.97
2022-11-16T12:24:58.554Z,40.97
2022-11-16T12:27:31.346Z,42.60
2022-11-16T12:30:03.659Z,40.42
2022-11-16T12:32:40.835Z,40.15
2022-11-16T12:35:15.793Z,37.60
2022-11-16T12:37:49.379Z,38.92
2022-11-16T12:40:27.090Z,41.30
2022-11-16T12:42:57.396Z,37.38
2022-11-16T12:45:33.120Z,37.45
2022-11-16T12:48:11.113Z,36.33
2022-11-16T12:50:43.520Z,38.63
2022-11-16T12:53:20.175Z,37.03
2022-11-16T12:55:54.555Z,37.83
2022-11-16T12:58:26.900Z,37.25
2022-11-16T13:00:59.872Z,38.35
2022-11-16T13:03:30.663Z,37.28
2022-11-16T13:06:00.511Z,36.85
2022-11-16T13:08:41.275Z,35.03
2022-11-16T13:11:12.277Z,35.70
2022-11-16T13:13:40.304Z,35.70
2022-11-16T13:16:08.546Z,32.50
2022-11-16T13:18:39.846Z,33.80
2022-11-16T13:21:12.580Z,33.08
2022-11-16T13:23:47.039Z,32.20
2022-11-16T13:26:20.637Z,33.90
2022-11-16T13:28:52.442Z,32.78
2022-11-16T13:31:21.926Z,32.83
2022-11-16T13:33:53.983Z,30.95
2022-11-16T13:36:43.656Z,31.27
2022-11-16T13:39:17.009Z,34.72
2022-11-16T13:41:47.475Z,34.50
2022-11-16T13:44:23.221Z,32.47
2022-11-16T13:46:56.761Z,30.67
2022-11-16T13:49:28.064Z,32.47
2022-11-16T13:52:07.014Z,31.75
2022-11-16T13:57:22.029Z,31.23
2022-11-16T13:59:50.670Z,29.30
2022-11-16T14:02:31.950Z,29.80
2022-11-16T14:05:02.094Z,30.08
2022-11-16T14:07:34.040Z,28.63
2022-11-16T14:10:02.356Z,28.20
2022-11-16T14:13:00.169Z,27.42
2022-11-16T14:15:41.055Z,28.25
2022-11-16T14:18:31.343Z,28.00
2022-11-16T14:21:10.932Z,27.08
2022-11-16T14:24:01.963Z,27.55
2022-11-16T14:26:41.927Z,25.75
2022-11-16T14:29:17.745Z,25.60
2022-11-16T14:31:50.308Z,24.98
2022-11-16T14:34:22.420Z,24.98
2022-11-16T14:36:52.076Z,27.13
2022-11-16T14:39:32.178Z,25.30
2022-11-16T14:42:03.974Z,26.17
2022-11-16T14:44:33.670Z,25.58
2022-11-16T14:47:02.324Z,24.90
2022-11-16T14:49:41.799Z,25.20
2022-11-16T14:52:12.229Z,24.67
2022-11-16T14:54:44.706Z,24.25
2022-11-16T14:57:14.352Z,24.20
2022-11-16T14:59:42.121Z,24.08
2022-11-16T15:02:23.378Z,24.38
2022-11-16T15:04:54.257Z,22.92
2022-11-16T15:07:24.943Z,23.80
2022-11-16T15:09:54.752Z,25.17
2022-11-16T15:12:45.050Z,22.83
2022-11-16T15:15:19.905Z,24.20
2022-11-16T15:17:55.716Z,25.27
2022-11-16T15:20:24.692Z,26.35
2022-11-16T15:22:57.988Z,24.88
2022-11-16T15:25:35.020Z,25.42
2022-11-16T15:28:06.045Z,24.58
2022-11-16T15:30:36.993Z,24.33
2022-11-16T15:33:13.008Z,24.58
2022-11-16T15:35:46.236Z,25.15
2022-11-16T15:38:20.833Z,24.35
2022-11-16T15:41:15.172Z,22.60
2022-11-16T15:44:12.488Z,25.65
2022-11-16T15:46:51.787Z,22.23
2022-11-16T15:49:32.414Z,23.33
2022-11-16T15:52:05.483Z,22.17
2022-11-16T15:55:00.182Z,27.75
2022-11-16T15:57:30.337Z,24.17
2022-11-16T16:00:01.032Z,24.08
2022-11-16T16:02:30.466Z,24.95
2022-11-16T16:05:25.863Z,27.38
2022-11-16T16:07:59.499Z,22.67
2022-11-16T16:10:46.422Z,23.75
2022-11-16T16:13:23.935Z,25.00
2022-11-16T16:16:13.821Z,24.02
2022-11-16T16:19:01.592Z,24.13
2022-11-16T16:21:47.498Z,23.20
2022-11-16T16:24:30.098Z,22.58
2022-11-16T16:27:03.274Z,23.55
2022-11-16T16:32:37.550Z,20.88
2022-11-16T16:35:19.259Z,21.40
2022-11-16T16:37:50.473Z,23.33
2022-11-16T16:40:31.842Z,22.23
2022-11-16T16:43:08.551Z,22.52
2022-11-16T16:45:43.438Z,22.90
2022-11-16T16:48:20.275Z,23.98
2022-11-16T16:50:57.207Z,22.60
2022-11-16T16:53:26.810Z,23.27
2022-11-16T16:56:15.125Z,22.00
2022-11-16T16:58:44.301Z,21.52
2022-11-16T17:01:28.866Z,23.17
2022-11-16T17:03:59.654Z,22.33
2022-11-16T17:06:31.921Z,23.13
2022-11-16T17:09:01.783Z,22.42
2022-11-16T17:11:34.906Z,22.63
2022-11-16T17:14:18.424Z,22.48
2022-11-16T17:16:56.451Z,22.40
2022-11-16T17:19:37.061Z,24.33
2022-11-16T17:22:09.422Z,23.60
2022-11-16T17:24:52.764Z,23.02
2022-11-16T17:27:22.874Z,23.17
2022-11-16T17:32:47.130Z,21.88
2022-11-16T17:35:15.030Z,23.85
2022-11-16T17:37:54.110Z,22.90
2022-11-16T17:40:23.555Z,23.05
2022-11-16T17:42:53.143Z,23.05
2022-11-16T17:45:22.500Z,22.52
2022-11-16T17:47:58.442Z,22.17
2022-11-16T17:50:27.867Z,21.65
2022-11-16T17:53:00.588Z,21.00
2022-11-16T17:55:28.363Z,21.33
2022-11-16T18:00:36.549Z,19.83
2022-11-16T18:03:10.085Z,18.10
2022-11-16T18:05:40.477Z,20.88
2022-11-16T18:08:08.313Z,18.30
2022-11-16T18:10:37.186Z,18.20
2022-11-16T18:13:05.469Z,18.13
2022-11-16T18:15:37.843Z,17.88
2022-11-16T18:18:11.180Z,18.38
2022-11-16T18:20:39.019Z,17.67
2022-11-16T18:23:06.778Z,18.40
2022-11-16T18:28:02.099Z,19.45
2022-11-16T18:32:57.427Z,19.75
2022-11-16T18:35:26.948Z,20.35
2022-11-16T18:37:54.734Z,18.67
2022-11-16T18:40:22.488Z,18.25
2022-11-16T18:45:17.895Z,17.13
2022-11-16T18:47:46.109Z,17.88
2022-11-16T18:50:20.063Z,16.95
2022-11-16T18:52:50.577Z,16.20
2022-11-16T18:55:18.320Z,16.75
2022-11-16T19:00:15.669Z,17.45
2022-11-16T19:02:43.384Z,16.20
2022-11-16T19:07:38.807Z,22.05
2022-11-16T19:10:09.327Z,36.28
2022-11-16T19:12:37.113Z,47.65
2022-11-16T19:15:05.073Z,17.73
2022-11-16T19:17:32.794Z,16.50
2022-11-16T19:22:28.180Z,16.25
2022-11-16T19:24:55.963Z,16.33
2022-11-16T19:29:52.587Z,15.68
2022-11-16T19:32:20.308Z,15.02
2022-11-16T19:37:16.457Z,13.40
2022-11-16T19:39:44.344Z,12.95
2022-11-16T19:42:12.106Z,12.93
2022-11-16T19:47:08.799Z,13.32
2022-11-16T19:49:36.549Z,14.20
2022-11-16T19:52:05.205Z,12.77
2022-11-16T19:54:32.987Z,14.27
2022-11-16T19:59:28.349Z,14.07
2022-11-16T20:04:25.504Z,15.43
2022-11-16T20:06:53.414Z,13.80
2022-11-16T20:09:21.374Z,13.60
2022-11-16T20:14:16.667Z,13.70
2022-11-16T20:19:12.444Z,14.23
2022-11-16T20:21:42.235Z,12.45
2022-11-16T20:24:11.867Z,13.57
2022-11-16T20:26:42.376Z,12.55
2022-11-16T20:29:11.274Z,12.40
2022-11-16T20:31:42.559Z,10.48
2022-11-16T20:34:13.974Z,11.85
2022-11-16T20:36:43.732Z,11.68
2022-11-16T20:39:13.144Z,11.00
2022-11-16T20:41:40.971Z,11.15
2022-11-16T20:44:15.013Z,10.68
2022-11-16T20:46:45.196Z,10.73
2022-11-16T20:49:13.201Z,11.02
2022-11-16T20:51:41.089Z,10.35
2022-11-16T20:54:10.338Z,10.30
2022-11-16T20:56:38.076Z,9.70
2022-11-16T21:01:33.371Z,9.80
2022-11-16T21:04:02.138Z,10.55
2022-11-16T21:06:30.121Z,11.38
2022-11-16T21:08:57.907Z,10.02
2022-11-16T21:11:28.946Z,12.18
2022-11-16T21:14:14.282Z,13.27
2022-11-16T21:16:42.429Z,12.50
2022-11-16T21:19:10.204Z,13.25
2022-11-16T21:24:06.019Z,13.70
2022-11-16T21:26:35.230Z,13.35
2022-11-16T21:29:03.089Z,13.75
2022-11-16T21:31:31.519Z,13.73
2022-11-16T21:34:00.550Z,13.35
2022-11-16T21:36:29.081Z,13.93
2022-11-16T21:38:58.066Z,14.02
2022-11-16T21:41:27.083Z,13.98
2022-11-16T21:43:56.531Z,12.93
2022-11-16T21:46:25.355Z,13.95
2022-11-16T21:48:54.322Z,13.90
2022-11-16T21:51:22.908Z,14.18
2022-11-16T21:53:50.672Z,14.48
2022-11-16T21:56:19.482Z,14.13
2022-11-16T21:58:47.635Z,14.43
2022-11-16T22:01:16.861Z,13.77
2022-11-16T22:03:45.581Z,14.88
2022-11-16T22:06:31.853Z,14.18
2022-11-16T22:08:59.792Z,14.63
2022-11-16T22:11:28.105Z,16.10
2022-11-16T22:13:56.155Z,17.10
2022-11-16T22:16:25.797Z,17.27
2022-11-16T22:18:53.768Z,17.55
2022-11-16T22:21:21.543Z,18.00
2022-11-16T22:26:16.885Z,18.35
2022-11-16T22:28:44.846Z,19.15
2022-11-16T22:31:13.316Z,19.60
2022-11-16T22:33:42.717Z,20.58
2022-11-16T22:36:10.866Z,21.33
2022-11-16T22:38:38.628Z,19.40
2022-11-16T22:43:35.946Z,19.63
2022-11-16T22:46:06.094Z,20.80
2022-11-16T22:48:34.647Z,20.73
2022-11-16T22:51:04.461Z,20.00
2022-11-16T22:53:33.723Z,21.38
2022-11-16T22:56:05.582Z,19.27
2022-11-16T22:58:33.365Z,20.90
2022-11-16T23:01:01.663Z,19.17
2022-11-16T23:03:29.815Z,19.75
2022-11-16T23:05:57.694Z,20.33
2022-11-16T23:08:26.821Z,20.63
2022-11-16T23:11:18.334Z,19.08
2022-11-16T23:14:03.682Z,18.42
2022-11-16T23:16:32.731Z,18.75
2022-11-16T23:19:00.547Z,18.67
2022-11-16T23:21:45.852Z,18.40
2022-11-16T23:24:33.241Z,18.85
2022-11-16T23:27:19.475Z,18.52
2022-11-16T23:29:47.244Z,19.42
2022-11-16T23:34:42.430Z,18.33
2022-11-16T23:39:39.562Z,18.73
2022-11-16T23:42:27.219Z,18.98
2022-11-16T23:44:54.957Z,19.00
2022-11-16T23:49:50.104Z,18.90
2022-11-16T23:54:46.800Z,19.27
2022-11-16T23:57:14.522Z,18.55
2022-11-16T23:59:42.363Z,18.67
